Airfield :
LOGIN :

Register | Disclaimer

   EN    FR    IT 

 










Legend :    VFR   Marginal VFR   IFR   Intensive IFR   Very Intensive IFR
Visi :
Ceiling :
>= 8 km
>= 3000ft
5 to 8 km
1000 to 3000 ft
1500m to 5 km
500 to 1000 ft
800 to 1500m
200 to 500 ft
< 800m
< 200 ft
Symbols :   Thunderstorms  Fog  Heavy snow  Heavy precipitations  Wind > 20 kt
SIGMETs :     Misc.  Thunderstorms  Icing  Turbulence  Mountain Waves  Volcanic Ashes







- Airport Elevation : 425 ft
- IATA code : DTM


EDLW - Dortmund

CURRENT METAR :
  • 201420Z 25004KT 220V290 9999 FEW042 SCT061 16/06 Q1020

EXPIRED METARs :
  • 201350Z 25005KT 160V280 CAVOK 15/08 Q1020
  • 201320Z 24009KT 9999 FEW033 SCT059 14/07 Q1020
  • 201250Z 25009KT 210V290 9999 SCT030 15/08 Q1020
  • 201220Z 24007KT 200V270 9999 SCT028 15/08 Q1020
  • 201150Z 24010KT 9999 SCT025 14/08 Q1020

TAF TAF EDLW
Valid from the 20 at 12:00 until the 21 at 12:00 UTC


201100Z 2012/2112 24007KT 9999 SCT020
BECMG 2017/2020 18007KT
No reported NOTAMs for that airfield.



MET'MAP, your aeronautical weather chart ! - Copyright ORBIFLY December 2007 - Disclaimer

ORBIFLY MET'MAP TEAM :

Programming & Development : Alexandra Zaïnal
Concept & Development : Baudouin d'Aumeries
Co-Development & Prog : Marc-Olivier Méhu
Technical & hardware support : Manuel Goepfert

Contact : metmap@orbifly.com




SOURCES & CREDITS :

   NOAA